Austell, Georgia
Current Conditions -  °F | °C
As of 3:53 AM on Friday 19 Dec 2014 (Local Time) from KFTY Reporting Station
Clear Clear  
Wind Chill: 38°   Ceiling: Unl
Heat Index: 38°   Visibility: 10mi
Dew Point: 32°   Wind: 0mph
Humidity: 79%   Direction: NA
Pressure: 30.14"   Gusts: NA
Location:  33.82°N, 84.64°W
Report Text: KFTY 190853Z 00000KT 10SM CLR 03/00 A3014 RMK AO2 SLP207 T00330000 55003
Loading
Personal Weather Stations






























Interactive Weather Map New forecast layout! Learn more

10-Day Weather Forecast

Advertisements
Track Severe Weather on mobile